Time;durP1;ratioP1;P1;durP2;ratioP2;P2;SDS_P1;SDS_P2;PMS_P1;PMS_P2;Temp;Humidity;BMP_temperature;BMP_pressure;BME280_temperature;BME280_humidity;BME280_pressure;Samples;Min_cycle;Max_cycle;Signal;HPM_P1;HPM_P2
2023/09/01 00:01:23;;;;;;;;;11.00;11.00;;;;;12.57;76.18;99524.34;5095930;28;8845;-58
2023/09/01 00:03:51;;;;;;;;;9.75;9.75;;;;;12.56;76.00;99534.19;5094854;28;8826;-59
2023/09/01 00:06:19;;;;;;;;;14.50;12.75;;;;;12.56;75.83;99536.00;5095773;28;8837;-59
2023/09/01 00:08:47;;;;;;;;;9.25;8.00;;;;;12.55;76.19;99531.66;5094555;28;8822;-57
2023/09/01 00:11:16;;;;;;;;;10.75;9.75;;;;;12.53;76.37;99522.97;5095067;28;8845;-59
2023/09/01 00:13:43;;;;;;;;;9.50;9.25;;;;;12.52;76.19;99529.25;5094695;28;8826;-57
2023/09/01 00:16:11;;;;;;;;;12.50;11.50;;;;;12.52;76.19;99522.09;5095639;28;9634;-58
2023/09/01 00:18:39;;;;;;;;;11.75;11.25;;;;;12.55;75.69;99523.66;5094908;28;8830;-59
2023/09/01 00:21:09;;;;;;;;;10.75;10.25;;;;;12.55;75.81;99520.97;5094688;28;8818;-57
2023/09/01 00:23:36;;;;;;;;;11.50;11.50;;;;;12.57;75.73;99521.66;5095304;28;8826;-59
2023/09/01 00:26:04;;;;;;;;;11.75;10.25;;;;;12.57;76.09;99527.00;5094474;28;8830;-57
2023/09/01 00:28:31;;;;;;;;;10.25;10.25;;;;;12.58;75.70;99534.03;5095003;28;8814;-59
2023/09/01 00:30:59;;;;;;;;;15.00;12.75;;;;;12.58;75.96;99529.53;5094574;28;8822;-59
2023/09/01 00:33:27;;;;;;;;;12.00;12.00;;;;;12.56;75.81;99526.19;5095380;28;8891;-60
2023/09/01 00:35:55;;;;;;;;;12.50;11.25;;;;;12.54;76.13;99527.31;5093617;28;8840;-59
2023/09/01 00:38:24;;;;;;;;;9.00;9.00;;;;;12.48;76.23;99523.38;5093880;28;8857;-58
2023/09/01 00:40:52;;;;;;;;;8.00;7.50;;;;;12.45;76.29;99530.84;5094780;28;8830;-59
2023/09/01 00:43:19;;;;;;;;;7.00;7.00;;;;;12.44;76.28;99535.34;5093588;28;8810;-58
2023/09/01 00:45:47;;;;;;;;;9.00;8.00;;;;;12.41;76.46;99538.31;5093714;28;8846;-58
2023/09/01 00:48:15;;;;;;;;;13.50;12.25;;;;;12.37;76.06;99544.03;5094379;28;8826;-59
2023/09/01 00:50:43;;;;;;;;;9.75;9.75;;;;;12.33;76.59;99532.84;5093715;28;8836;-58
2023/09/01 00:53:11;;;;;;;;;11.75;10.00;;;;;12.32;76.58;99525.78;5094816;28;8825;-57
2023/09/01 00:55:39;;;;;;;;;10.00;9.75;;;;;12.29;76.62;99517.22;5093570;28;8834;-59
2023/09/01 00:58:06;;;;;;;;;7.50;6.75;;;;;12.29;76.34;99514.53;5093194;28;8830;-60
2023/09/01 01:00:35;;;;;;;;;10.75;10.75;;;;;12.29;76.60;99520.75;5094089;28;8857;-59
2023/09/01 01:03:04;;;;;;;;;9.00;7.00;;;;;12.29;76.29;99523.41;5093893;28;8822;-59
2023/09/01 01:05:32;;;;;;;;;12.50;12.00;;;;;12.27;76.92;99524.53;5094005;28;8891;-58
2023/09/01 01:07:59;;;;;;;;;10.50;7.50;;;;;12.24;76.32;99524.84;5093214;28;8838;-59
2023/09/01 01:10:27;;;;;;;;;15.25;10.50;;;;;12.21;76.47;99525.09;5093706;28;8842;-59
2023/09/01 01:12:55;;;;;;;;;9.75;7.50;;;;;12.19;76.73;99516.41;5094309;28;8990;-60
2023/09/01 01:15:23;;;;;;;;;12.00;10.00;;;;;12.17;76.61;99510.38;5094353;28;8833;-58
2023/09/01 01:17:51;;;;;;;;;9.50;9.50;;;;;12.19;76.55;99516.41;5094813;28;8833;-57
2023/09/01 01:20:19;;;;;;;;;15.25;12.75;;;;;12.20;76.87;99515.41;5094257;28;8844;-58
2023/09/01 01:22:46;;;;;;;;;9.25;9.25;;;;;12.23;76.52;99512.47;5093465;28;8897;-57
2023/09/01 01:25:14;;;;;;;;;11.50;10.50;;;;;12.23;76.56;99513.31;5095207;28;8830;-60
2023/09/01 01:27:42;;;;;;;;;7.75;7.00;;;;;12.24;76.19;99506.97;5098027;28;8814;-57
2023/09/01 01:30:09;;;;;;;;;9.00;9.00;;;;;12.26;76.06;99512.19;5097666;28;8833;-57
2023/09/01 01:32:38;;;;;;;;;12.75;12.75;;;;;12.26;76.71;99514.84;5098456;28;8822;-57
2023/09/01 01:35:06;;;;;;;;;8.25;7.50;;;;;12.25;76.90;99511.31;5097551;28;8830;-57
2023/09/01 01:37:33;;;;;;;;;12.50;10.00;;;;;12.25;76.06;99515.84;5096988;28;8834;-59
2023/09/01 01:40:01;;;;;;;;;10.50;8.00;;;;;12.23;76.59;99515.16;5097637;28;8834;-60
2023/09/01 01:42:29;;;;;;;;;10.50;9.50;;;;;12.22;76.07;99508.09;5096668;28;8841;-58
2023/09/01 01:44:56;;;;;;;;;8.00;6.50;;;;;12.24;76.73;99503.47;5096764;28;8838;-60
2023/09/01 01:47:24;;;;;;;;;12.00;10.00;;;;;12.25;76.58;99499.81;5097436;28;8856;-57
2023/09/01 01:49:52;;;;;;;;;9.75;9.25;;;;;12.24;76.74;99498.13;5097253;28;8834;-59
2023/09/01 01:52:19;;;;;;;;;8.25;7.75;;;;;12.21;76.55;99507.28;5096498;28;8830;-60
2023/09/01 01:54:47;;;;;;;;;11.00;11.00;;;;;12.16;76.34;99506.03;5097601;28;8850;-58
2023/09/01 01:57:15;;;;;;;;;9.00;9.00;;;;;12.10;76.47;99501.25;5097023;28;8806;-59
2023/09/01 01:59:43;;;;;;;;;14.00;12.00;;;;;12.06;76.74;99505.16;5096502;28;8806;-57
2023/09/01 02:02:11;;;;;;;;;9.00;8.50;;;;;12.00;76.69;99500.44;5097291;28;9491;-59
2023/09/01 02:04:38;;;;;;;;;9.75;9.75;;;;;11.98;77.11;99507.72;5097442;28;8833;-60
2023/09/01 02:07:07;;;;;;;;;9.25;9.25;;;;;11.95;76.66;99508.81;5097338;28;8976;-58
2023/09/01 02:09:34;;;;;;;;;12.75;11.50;;;;;11.92;77.14;99500.28;5097037;28;8834;-58
2023/09/01 02:12:02;;;;;;;;;10.00;10.00;;;;;11.90;77.13;99496.06;5097545;28;8860;-59
2023/09/01 02:14:30;;;;;;;;;10.25;9.75;;;;;11.87;77.29;99497.19;5097553;28;8873;-58
2023/09/01 02:16:58;;;;;;;;;10.00;9.00;;;;;11.83;77.05;99501.09;5096920;28;8866;-60
2023/09/01 02:19:25;;;;;;;;;10.00;8.50;;;;;11.78;77.44;99516.72;5096840;28;8806;-58
2023/09/01 02:21:53;;;;;;;;;9.75;7.50;;;;;11.74;77.15;99511.81;5097113;28;8822;-58
2023/09/01 02:24:21;;;;;;;;;9.25;9.25;;;;;11.70;77.34;99497.91;5097125;28;8814;-59
2023/09/01 02:26:49;;;;;;;;;9.25;8.00;;;;;11.67;77.60;99497.34;5097040;28;8848;-59
2023/09/01 02:29:17;;;;;;;;;5.00;5.00;;;;;11.64;77.38;99487.78;5096669;28;8826;-57
2023/09/01 02:31:44;;;;;;;;;9.00;9.00;;;;;11.62;77.41;99495.09;5096955;28;8822;-57
2023/09/01 02:34:12;;;;;;;;;9.25;9.00;;;;;11.59;77.34;99500.69;5096940;28;9494;-57
2023/09/01 02:36:39;;;;;;;;;7.50;6.75;;;;;11.59;77.27;99505.19;5096510;28;8822;-59
2023/09/01 02:39:07;;;;;;;;;10.00;9.50;;;;;11.58;77.29;99499.00;5096555;28;8832;-57
2023/09/01 02:41:35;;;;;;;;;11.00;9.50;;;;;11.57;77.12;99486.63;5097266;28;8836;-58
2023/09/01 02:44:02;;;;;;;;;9.50;8.25;;;;;11.57;77.65;99496.44;5096610;28;8899;-58
2023/09/01 02:46:30;;;;;;;;;8.00;8.00;;;;;11.56;77.36;99484.94;5096485;28;8830;-58
2023/09/01 02:48:58;;;;;;;;;11.50;10.00;;;;;11.55;77.16;99485.94;5096386;28;8814;-58
2023/09/01 02:51:25;;;;;;;;;11.00;10.50;;;;;11.54;77.76;99492.22;5096119;28;8850;-57
2023/09/01 02:53:53;;;;;;;;;9.00;9.00;;;;;11.51;77.27;99494.34;5096356;28;8857;-59
2023/09/01 02:56:21;;;;;;;;;8.50;8.50;;;;;11.51;77.58;99497.03;5096729;28;8818;-57
2023/09/01 02:58:48;;;;;;;;;5.00;3.75;;;;;11.50;77.24;99497.97;5096335;28;8818;-57
2023/09/01 03:01:17;;;;;;;;;7.00;6.50;;;;;11.51;77.66;99503.19;5096456;28;8821;-57
2023/09/01 03:03:45;;;;;;;;;8.50;8.50;;;;;11.51;77.47;99500.50;5096400;28;8837;-59
2023/09/01 03:06:13;;;;;;;;;6.25;6.25;;;;;11.52;77.78;99494.19;5096188;28;8826;-58
2023/09/01 03:08:41;;;;;;;;;9.00;8.00;;;;;11.52;77.28;99494.19;5096157;28;8840;-58
2023/09/01 03:11:08;;;;;;;;;13.25;12.50;;;;;11.53;77.38;99495.03;5095952;28;8826;-58
2023/09/01 03:13:36;;;;;;;;;11.75;11.00;;;;;11.54;77.29;99496.72;5096338;28;8826;-59
2023/09/01 03:16:04;;;;;;;;;11.50;10.25;;;;;11.55;77.40;99506.41;5095520;28;8846;-59
2023/09/01 03:18:32;;;;;;;;;10.00;9.00;;;;;11.58;77.06;99500.81;5096032;28;8821;-58
2023/09/01 03:20:59;;;;;;;;;8.00;7.75;;;;;11.61;77.04;99501.38;5096534;28;8852;-57
2023/09/01 03:23:27;;;;;;;;;12.00;10.00;;;;;11.65;77.10;99500.13;5095631;28;8821;-57
2023/09/01 03:25:55;;;;;;;;;8.75;7.50;;;;;11.66;77.25;99504.47;5095779;28;8818;-58
2023/09/01 03:28:23;;;;;;;;;8.00;5.50;;;;;11.67;76.64;99511.50;5095880;28;8907;-57
2023/09/01 03:30:51;;;;;;;;;10.00;9.50;;;;;11.69;76.66;99506.84;5095913;28;8857;-59
2023/09/01 03:33:18;;;;;;;;;9.00;9.00;;;;;11.71;77.23;99506.72;5095403;28;9512;-58
2023/09/01 03:35:46;;;;;;;;;9.50;9.50;;;;;11.72;76.62;99511.06;5095441;28;8822;-58
2023/09/01 03:38:13;;;;;;;;;11.50;10.75;;;;;11.76;76.83;99512.50;5095139;28;8864;-57
2023/09/01 03:40:42;;;;;;;;;8.00;7.50;;;;;11.78;76.70;99516.72;5095211;28;8822;-57
2023/09/01 03:43:09;;;;;;;;;10.00;7.50;;;;;11.84;76.48;99515.31;5094664;28;8818;-59
2023/09/01 03:45:37;;;;;;;;;9.00;9.00;;;;;11.89;77.23;99511.22;5094853;28;8901;-57
2023/09/01 03:48:05;;;;;;;;;3.50;3.50;;;;;11.98;76.54;99513.03;5094129;28;8834;-58
2023/09/01 03:50:33;;;;;;;;;10.75;10.75;;;;;12.03;76.25;99516.13;5094897;28;8918;-57
2023/09/01 03:53:01;;;;;;;;;10.00;9.00;;;;;12.07;76.04;99512.22;5094346;28;8826;-57
2023/09/01 03:55:28;;;;;;;;;9.25;9.00;;;;;12.09;76.11;99505.72;5094863;28;8837;-59
2023/09/01 03:57:56;;;;;;;;;10.00;9.00;;;;;12.11;76.70;99508.25;5094605;28;8822;-58
2023/09/01 04:00:24;;;;;;;;;9.00;9.00;;;;;12.11;76.21;99508.25;5094581;28;8857;-57
2023/09/01 04:02:51;;;;;;;;;11.00;9.00;;;;;12.08;76.70;99504.06;5094567;28;8837;-59
2023/09/01 04:05:19;;;;;;;;;9.75;9.50;;;;;12.07;76.64;99501.53;5095261;28;8897;-58
2023/09/01 04:07:47;;;;;;;;;10.67;10.00;;;;;12.06;76.32;99505.16;5094812;28;8818;-58
2023/09/01 04:10:15;;;;;;;;;8.00;7.00;;;;;12.04;76.59;99508.00;5093870;28;8830;-58
2023/09/01 04:12:43;;;;;;;;;11.00;9.33;;;;;12.05;76.51;99504.34;5094552;28;8822;-57
2023/09/01 04:15:11;;;;;;;;;7.25;6.75;;;;;12.05;76.50;99493.66;5094735;28;8840;-57
2023/09/01 04:17:38;;;;;;;;;9.50;9.00;;;;;12.07;76.41;99498.88;5094911;28;8825;-59
2023/09/01 04:20:07;;;;;;;;;9.00;8.50;;;;;12.08;76.34;99490.69;5094991;28;8818;-57
2023/09/01 04:22:35;;;;;;;;;7.00;7.00;;;;;12.10;76.20;99490.56;5094963;28;8818;-57
2023/09/01 04:25:04;;;;;;;;;6.50;6.50;;;;;12.12;76.39;99483.25;5094359;28;8864;-57
2023/09/01 04:27:34;;;;;;;;;9.75;9.00;;;;;12.13;76.08;99484.94;5094411;28;8829;-59
2023/09/01 04:30:02;;;;;;;;;3.50;3.00;;;;;12.12;76.40;99484.09;5094665;28;8965;-57
2023/09/01 04:32:37;;;;;;;;;8.50;8.50;;;;;12.15;76.78;99488.31;5094581;28;8826;-57
2023/09/01 04:35:05;;;;;;;;;12.00;12.00;;;;;12.15;76.45;99486.47;5094861;28;8841;-58
2023/09/01 04:37:33;;;;;;;;;5.00;4.50;;;;;12.16;76.02;99479.34;5094621;28;8857;-58
2023/09/01 04:40:01;;;;;;;;;9.50;9.25;;;;;12.17;76.11;99486.34;5094555;28;8872;-60
2023/09/01 04:42:29;;;;;;;;;9.50;9.50;;;;;12.17;76.29;99475.66;5094503;28;8832;-59
2023/09/01 04:44:56;;;;;;;;;9.00;7.00;;;;;12.19;76.70;99474.53;5094455;28;8869;-60
2023/09/01 04:47:24;;;;;;;;;2.50;2.00;;;;;12.19;76.09;99468.34;5094389;28;8865;-59
2023/09/01 04:49:52;;;;;;;;;7.00;7.00;;;;;12.16;76.03;99474.81;5094014;28;8845;-58
2023/09/01 04:52:19;;;;;;;;;10.00;9.00;;;;;12.14;76.60;99471.44;5094360;28;8834;-56
2023/09/01 04:55:00;;;;;;;;;7.00;6.50;;;;;12.11;76.30;99465.56;5094261;28;8829;-58
2023/09/01 04:57:27;;;;;;;;;9.00;8.50;;;;;12.12;76.39;99465.44;5094230;28;8825;-57
2023/09/01 04:59:55;;;;;;;;;11.50;10.00;;;;;12.14;76.88;99465.25;5094976;28;8863;-58
2023/09/01 05:02:23;;;;;;;;;6.50;6.00;;;;;12.17;76.82;99460.47;5097939;28;8848;-57
2023/09/01 05:04:50;;;;;;;;;4.00;4.00;;;;;12.24;76.16;99477.59;5097868;28;8860;-59
2023/09/01 05:07:18;;;;;;;;;9.50;9.25;;;;;12.35;76.06;99484.59;5097549;28;8833;-57
2023/09/01 05:09:46;;;;;;;;;11.50;10.00;;;;;12.46;75.75;99479.13;5097548;28;9538;-57
2023/09/01 05:12:14;;;;;;;;;8.25;7.75;;;;;12.56;76.03;99477.25;5097165;28;8830;-56
2023/09/01 05:14:42;;;;;;;;;7.00;7.00;;;;;12.69;75.40;99477.78;5097773;28;8836;-57
2023/09/01 05:17:09;;;;;;;;;8.50;7.50;;;;;12.80;75.05;99496.28;5097277;28;8853;-57
2023/09/01 05:19:37;;;;;;;;;7.00;7.00;;;;;12.86;74.73;99488.53;5097355;28;8956;-58
2023/09/01 05:22:05;;;;;;;;;9.00;9.00;;;;;12.92;75.13;99484.41;5096493;28;8956;-58
2023/09/01 05:24:32;;;;;;;;;8.00;6.75;;;;;12.97;75.03;99483.00;5096344;28;8864;-57
2023/09/01 05:27:00;;;;;;;;;9.00;6.75;;;;;13.01;74.72;99494.25;5096790;28;8856;-57
2023/09/01 05:29:30;;;;;;;;;9.00;7.75;;;;;13.03;74.70;99487.75;5096754;28;8852;-57
2023/09/01 05:31:58;;;;;;;;;6.25;6.25;;;;;13.08;74.61;99490.00;5095927;28;8837;-58
2023/09/01 05:34:26;;;;;;;;;7.50;7.00;;;;;13.12;74.90;99476.19;5095871;28;8834;-58
2023/09/01 05:36:56;;;;;;;;;9.75;8.50;;;;;13.18;74.40;99475.59;5095920;28;8810;-59
2023/09/01 05:39:24;;;;;;;;;6.75;6.50;;;;;13.24;74.56;99482.16;5096179;28;8842;-59
2023/09/01 05:41:52;;;;;;;;;5.00;5.00;;;;;13.29;74.45;99478.03;5096206;28;9483;-57
2023/09/01 05:44:20;;;;;;;;;7.00;7.00;;;;;13.34;74.28;99475.75;5095669;28;8861;-57
2023/09/01 05:46:47;;;;;;;;;7.75;6.75;;;;;13.40;74.04;99476.97;5095975;28;8862;-57
2023/09/01 05:49:15;;;;;;;;;4.00;4.00;;;;;13.44;74.19;99475.69;5095548;28;8841;-57
2023/09/01 05:51:43;;;;;;;;;10.00;9.75;;;;;13.50;74.35;99478.59;5095979;28;9279;-57
2023/09/01 05:54:10;;;;;;;;;7.00;6.50;;;;;13.58;73.90;99478.69;5096080;28;9499;-57
2023/09/01 05:56:38;;;;;;;;;9.00;9.00;;;;;13.66;73.82;99492.13;5095393;28;8860;-56
2023/09/01 05:59:06;;;;;;;;;7.50;7.00;;;;;13.77;73.51;99489.25;5095305;28;8884;-56
2023/09/01 06:01:35;;;;;;;;;9.00;8.50;;;;;13.87;73.67;99497.19;5094147;28;8853;-57
2023/09/01 06:04:03;;;;;;;;;10.00;9.75;;;;;13.99;73.30;99504.00;5094352;28;8836;-58
2023/09/01 06:06:31;;;;;;;;;8.00;7.00;;;;;14.13;72.84;99501.59;5094896;28;8837;-59
2023/09/01 06:08:59;;;;;;;;;9.00;6.50;;;;;14.25;72.89;99510.25;5094560;28;8940;-57
2023/09/01 06:11:28;;;;;;;;;9.00;7.00;;;;;14.36;72.83;99505.47;5094659;28;8948;-59
2023/09/01 06:13:56;;;;;;;;;12.00;9.50;;;;;14.47;72.65;99499.03;5094980;28;8834;-57
2023/09/01 06:16:25;;;;;;;;;8.00;7.00;;;;;14.55;72.42;99491.91;5094895;28;8831;-58
2023/09/01 06:18:53;;;;;;;;;5.25;5.25;;;;;14.63;72.64;99488.44;5095319;28;8833;-57
2023/09/01 06:21:21;;;;;;;;;9.75;9.25;;;;;14.68;72.55;99473.56;5095372;28;9498;-58
2023/09/01 06:23:48;;;;;;;;;7.00;7.00;;;;;14.73;72.34;99478.44;5094748;28;8837;-57
2023/09/01 06:26:17;;;;;;;;;7.00;7.00;;;;;14.75;72.82;99482.63;5094575;28;8838;-58
2023/09/01 06:28:45;;;;;;;;;9.00;7.00;;;;;14.80;72.43;99484.84;5093976;28;9495;-57
2023/09/01 06:31:13;;;;;;;;;9.25;6.75;;;;;14.89;72.30;99483.88;5094271;28;8830;-57
2023/09/01 06:33:43;;;;;;;;;9.25;9.00;;;;;14.99;72.63;99490.78;5094118;28;8887;-58
2023/09/01 06:36:12;;;;;;;;;9.75;6.50;;;;;15.15;71.95;99479.28;5093881;28;8833;-58
2023/09/01 06:38:41;;;;;;;;;9.25;6.50;;;;;15.35;71.48;99478.03;5094194;28;8856;-58
2023/09/01 06:41:09;;;;;;;;;6.50;6.00;;;;;15.57;71.31;99464.00;5095056;28;8818;-58
2023/09/01 06:43:37;;;;;;;;;6.00;6.00;;;;;15.81;70.32;99469.41;5094834;28;8838;-59
2023/09/01 06:46:06;;;;;;;;;8.00;6.50;;;;;16.01;70.02;99476.13;5094125;28;8850;-59
2023/09/01 06:48:35;;;;;;;;;7.00;6.80;;;;;16.14;70.48;99479.19;5093468;28;8829;-59
2023/09/01 06:51:03;;;;;;;;;7.80;7.40;;;;;16.25;70.20;99482.34;5092600;28;8840;-57
2023/09/01 06:53:30;;;;;;;;;6.80;6.00;;;;;16.39;70.01;99487.91;5092683;28;8837;-58
2023/09/01 06:55:58;;;;;;;;;7.40;7.00;;;;;16.51;69.93;99480.31;5092724;28;8833;-58
2023/09/01 06:58:26;;;;;;;;;4.40;3.80;;;;;16.62;69.53;99482.69;5093459;28;8830;-58
2023/09/01 07:00:54;;;;;;;;;1.80;1.80;;;;;16.72;69.08;99478.75;5093245;28;8853;-57
2023/09/01 07:03:22;;;;;;;;;6.80;6.40;;;;;16.79;69.42;99474.38;5094516;28;8850;-57
2023/09/01 07:05:50;;;;;;;;;6.00;4.00;;;;;16.89;69.20;99485.78;5094624;28;8834;-58
2023/09/01 07:08:18;;;;;;;;;4.40;4.40;;;;;17.01;69.34;99487.06;5095078;28;8834;-58
2023/09/01 07:10:46;;;;;;;;;8.60;7.00;;;;;17.14;69.03;99479.28;5095021;28;8834;-60
2023/09/01 07:13:14;;;;;;;;;9.60;9.20;;;;;17.21;69.30;99477.59;5094688;28;8857;-58
2023/09/01 07:15:42;;;;;;;;;6.00;6.00;;;;;17.27;69.09;99476.88;5095023;28;8834;-58
2023/09/01 07:18:11;;;;;;;;;6.20;6.20;;;;;17.30;69.07;99476.53;5094535;28;8824;-58
2023/09/01 07:20:42;;;;;;;;;6.40;6.20;;;;;17.34;69.07;99480.56;5093766;28;8848;-59
2023/09/01 07:23:11;;;;;;;;;6.40;5.80;;;;;17.38;68.85;99479.22;5093394;28;8841;-59
2023/09/01 07:25:39;;;;;;;;;5.60;4.00;;;;;17.43;68.83;99470.59;5094740;28;8838;-58
2023/09/01 07:28:08;;;;;;;;;3.80;3.80;;;;;17.46;69.16;99481.84;5094225;28;8832;-57
2023/09/01 07:30:35;;;;;;;;;6.80;6.00;;;;;17.46;69.15;99475.66;5094532;28;8930;-57
2023/09/01 07:33:03;;;;;;;;;6.00;6.00;;;;;17.43;69.82;99471.44;5094058;28;9560;-58
2023/09/01 07:35:31;;;;;;;;;4.00;4.00;;;;;17.43;69.90;99463.38;5094022;28;8830;-58
2023/09/01 07:37:59;;;;;;;;;3.80;3.60;;;;;17.44;69.57;99464.19;5094018;28;8818;-59
2023/09/01 07:40:29;;;;;;;;;9.40;6.20;;;;;17.48;69.90;99471.72;5094004;28;8849;-58
2023/09/01 07:42:56;;;;;;;;;4.00;4.00;;;;;17.50;69.23;99469.72;5093420;28;8826;-58
2023/09/01 07:45:24;;;;;;;;;2.60;2.60;;;;;17.50;69.91;99477.81;5092673;28;8902;-58
2023/09/01 07:47:52;;;;;;;;;4.80;4.80;;;;;17.52;69.68;99474.91;5093286;28;9803;-58
2023/09/01 07:50:40;;;;;;;;;3.20;3.00;;;;;17.55;69.67;99471.88;5092522;28;8850;-58
2023/09/01 07:53:07;;;;;;;;;4.00;4.00;;;;;17.57;69.75;99470.69;5092595;28;8838;-58
2023/09/01 07:55:35;;;;;;;;;4.00;3.00;;;;;17.57;69.69;99476.09;5092543;28;8912;-57
2023/09/01 07:58:03;;;;;;;;;3.00;3.00;;;;;17.59;70.31;99471.34;5092406;28;8826;-58
2023/09/01 08:00:31;;;;;;;;;3.00;3.00;;;;;17.65;69.77;99465.25;5092781;28;8838;-58
2023/09/01 08:02:59;;;;;;;;;0.00;0.00;;;;;17.80;69.62;99457.22;5093552;28;9487;-58
2023/09/01 08:05:27;;;;;;;;;1.40;1.40;;;;;17.97;69.62;99465.00;5093293;28;8825;-59
2023/09/01 08:07:55;;;;;;;;;3.00;3.00;;;;;18.11;69.02;99466.94;5094150;28;9636;-58
2023/09/01 08:10:23;;;;;;;;;3.00;3.00;;;;;18.19;68.78;99474.94;5093970;28;8881;-58
2023/09/01 08:12:51;;;;;;;;;1.40;1.40;;;;;18.21;69.31;99480.97;5093384;28;8844;-58
2023/09/01 08:15:19;;;;;;;;;0.00;0.00;;;;;18.19;69.09;99482.19;5092849;28;8834;-57
2023/09/01 08:17:49;;;;;;;;;2.20;1.40;;;;;18.18;68.85;99492.13;5092891;28;8864;-60
2023/09/01 08:20:17;;;;;;;;;0.40;0.40;;;;;18.15;69.62;99483.56;5092609;28;8918;-58
2023/09/01 08:22:45;;;;;;;;;1.00;1.00;;;;;18.10;69.37;99481.44;5092488;28;8840;-58
2023/09/01 08:25:13;;;;;;;;;3.00;3.00;;;;;18.07;69.54;99481.78;5091625;28;8841;-57
2023/09/01 08:27:41;;;;;;;;;0.40;0.40;;;;;18.07;69.67;99484.47;5092371;28;8838;-60
2023/09/01 08:30:09;;;;;;;;;3.00;3.00;;;;;18.09;69.78;99481.59;5093036;28;8858;-58
2023/09/01 08:32:37;;;;;;;;;3.80;3.00;;;;;18.14;69.51;99477.34;5092647;28;8850;-61
2023/09/01 08:35:05;;;;;;;;;1.00;1.00;;;;;18.26;69.79;99475.91;5096186;28;8826;-60
2023/09/01 08:37:33;;;;;;;;;2.20;1.80;;;;;18.44;68.98;99479.13;5097242;28;8850;-59
2023/09/01 08:40:01;;;;;;;;;1.00;1.00;;;;;18.63;68.96;99477.75;5097534;28;8845;-58
2023/09/01 08:42:29;;;;;;;;;1.00;1.00;;;;;18.79;68.65;99488.38;5096891;28;8846;-59
2023/09/01 08:44:59;;;;;;;;;2.60;2.60;;;;;18.95;68.69;99488.19;5097223;28;8922;-57
2023/09/01 08:47:27;;;;;;;;;2.60;2.60;;;;;19.07;68.30;99486.72;5097463;28;8923;-59
2023/09/01 08:49:55;;;;;;;;;3.40;2.20;;;;;19.13;67.68;99492.19;5097255;28;8970;-59
2023/09/01 08:52:24;;;;;;;;;3.00;1.00;;;;;19.17;68.06;99492.66;5097319;28;8838;-59
2023/09/01 08:54:51;;;;;;;;;1.00;1.00;;;;;19.15;68.55;99490.16;5096549;28;8838;-59
2023/09/01 08:57:21;;;;;;;;;1.00;1.00;;;;;19.15;68.50;99484.75;5095827;28;8826;-58
2023/09/01 08:59:49;;;;;;;;;1.00;1.00;;;;;19.17;68.00;99471.06;5096733;28;8834;-58
2023/09/01 09:02:17;;;;;;;;;1.80;1.00;;;;;19.21;68.28;99475.91;5096299;28;8864;-60
2023/09/01 09:04:45;;;;;;;;;1.80;1.80;;;;;19.22;68.09;99472.22;5096202;28;8822;-59
2023/09/01 09:07:13;;;;;;;;;3.00;3.00;;;;;19.19;68.31;99488.78;5095444;28;8826;-58
2023/09/01 09:09:40;;;;;;;;;1.80;1.00;;;;;19.08;68.84;99486.53;5096026;28;8829;-58
2023/09/01 09:12:09;;;;;;;;;3.00;3.00;;;;;18.98;68.74;99490.53;5096013;28;8833;-59
2023/09/01 09:14:37;;;;;;;;;3.00;3.00;;;;;18.83;69.34;99487.81;5095907;28;8894;-58
2023/09/01 09:17:22;;;;;;;;;0.00;0.00;;;;;18.71;69.90;99488.47;5096955;28;8846;-59
2023/09/01 09:19:50;;;;;;;;;1.00;1.00;;;;;18.60;70.26;99484.34;5096524;28;8903;-58
2023/09/01 09:22:18;;;;;;;;;1.00;1.00;;;;;18.51;70.12;99490.84;5096122;28;8853;-59
2023/09/01 09:24:46;;;;;;;;;3.40;3.00;;;;;18.45;70.71;99502.38;5096534;28;8844;-60
2023/09/01 09:27:13;;;;;;;;;3.80;3.80;;;;;18.44;70.94;99499.88;5096252;28;8821;-59
2023/09/01 09:29:41;;;;;;;;;0.40;0.40;;;;;18.45;70.39;99505.06;5096027;28;8915;-58
2023/09/01 09:32:09;;;;;;;;;4.00;1.00;;;;;18.48;70.67;99507.41;5096213;28;9617;-58
2023/09/01 09:34:38;;;;;;;;;1.00;1.00;;;;;18.47;70.83;99511.13;5095849;28;8841;-58
2023/09/01 09:37:06;;;;;;;;;1.00;1.00;;;;;18.42;70.80;99516.22;5095963;28;8920;-58
2023/09/01 09:39:37;;;;;;;;;2.60;2.60;;;;;18.39;70.58;99516.59;5095999;28;8830;-58
2023/09/01 09:42:05;;;;;;;;;1.40;1.40;;;;;18.37;71.12;99520.50;5095596;28;8834;-58
2023/09/01 09:44:33;;;;;;;;;3.40;3.40;;;;;18.30;70.99;99525.75;5095369;28;8849;-58
2023/09/01 09:47:02;;;;;;;;;3.60;3.60;;;;;18.23;71.10;99522.06;5095282;28;8980;-58
2023/09/01 09:49:30;;;;;;;;;0.60;0.60;;;;;18.14;71.26;99528.53;5096025;28;8828;-58
2023/09/01 09:51:58;;;;;;;;;1.00;1.00;;;;;18.03;71.72;99528.97;5095999;28;8877;-58
2023/09/01 09:54:26;;;;;;;;;1.00;1.00;;;;;17.90;71.94;99533.28;5095618;28;8852;-61
2023/09/01 09:56:55;;;;;;;;;0.40;0.40;;;;;17.77;72.15;99528.47;5095903;28;8833;-58
2023/09/01 09:59:22;;;;;;;;;3.00;3.00;;;;;17.67;72.47;99533.25;5096177;28;8841;-58
2023/09/01 10:01:50;;;;;;;;;3.00;3.00;;;;;17.56;73.27;99533.66;5095040;28;8845;-59
2023/09/01 10:04:18;;;;;;;;;3.20;3.00;;;;;17.49;73.23;99529.97;5095186;28;8830;-59
2023/09/01 10:06:46;;;;;;;;;3.20;2.60;;;;;17.41;73.63;99532.72;5095282;28;8814;-57
2023/09/01 10:09:16;;;;;;;;;3.20;3.20;;;;;17.34;73.37;99528.16;5095162;28;9563;-58
2023/09/01 10:11:45;;;;;;;;;6.00;4.00;;;;;17.27;73.53;99532.56;5095208;28;8841;-58
2023/09/01 10:14:13;;;;;;;;;1.00;1.00;;;;;17.21;73.71;99531.41;5094675;28;8837;-59
2023/09/01 10:16:41;;;;;;;;;1.80;1.00;;;;;17.20;73.43;99526.19;5094870;28;8856;-58
2023/09/01 10:19:09;;;;;;;;;1.00;1.00;;;;;17.18;73.92;99521.00;5094872;28;8838;-58
2023/09/01 10:21:37;;;;;;;;;1.40;1.40;;;;;17.18;73.76;99518.31;5095282;28;8853;-58
2023/09/01 10:24:04;;;;;;;;;1.00;1.00;;;;;17.18;73.71;99514.78;5094459;28;8830;-58
2023/09/01 10:26:32;;;;;;;;;0.60;0.60;;;;;17.17;73.86;99521.16;5094092;28;8844;-58
2023/09/01 10:29:01;;;;;;;;;3.00;3.00;;;;;17.16;74.27;99524.88;5093772;28;8873;-58
2023/09/01 10:31:29;;;;;;;;;1.00;1.00;;;;;17.14;74.19;99527.72;5094139;28;8841;-58
2023/09/01 10:33:57;;;;;;;;;3.00;3.00;;;;;17.14;74.06;99534.94;5094252;28;8854;-58
2023/09/01 10:36:25;;;;;;;;;0.00;0.00;;;;;17.13;74.09;99527.91;5094430;28;8849;-59
2023/09/01 10:38:53;;;;;;;;;2.20;2.20;;;;;17.12;74.20;99527.06;5093843;28;8939;-58
2023/09/01 10:41:21;;;;;;;;;0.20;0.20;;;;;17.15;74.37;99536.66;5094434;28;8878;-58
2023/09/01 10:43:48;;;;;;;;;1.40;1.40;;;;;17.15;73.99;99529.41;5094581;28;8853;-58
2023/09/01 10:46:16;;;;;;;;;1.40;1.40;;;;;17.17;74.34;99527.38;5094249;28;8866;-58
2023/09/01 10:48:45;;;;;;;;;1.00;1.00;;;;;17.20;74.29;99535.13;5093504;28;9401;-59
2023/09/01 10:51:13;;;;;;;;;2.60;2.60;;;;;17.20;73.85;99527.03;5093021;28;8825;-58
2023/09/01 10:53:41;;;;;;;;;2.60;1.00;;;;;17.23;73.66;99534.75;5093403;28;9504;-57
2023/09/01 10:56:08;;;;;;;;;2.20;1.00;;;;;17.25;74.17;99530.03;5093958;28;8854;-58
2023/09/01 10:58:36;;;;;;;;;1.00;1.00;;;;;17.25;73.56;99521.97;5094495;28;8841;-58
2023/09/01 11:01:04;;;;;;;;;0.40;0.40;;;;;17.27;73.72;99524.47;5094595;28;9074;-58
2023/09/01 11:03:34;;;;;;;;;1.00;1.00;;;;;17.30;73.66;99527.66;5094403;28;8832;-58
2023/09/01 11:06:03;;;;;;;;;1.00;1.00;;;;;17.33;73.72;99530.00;5094954;28;8861;-58
2023/09/01 11:08:32;;;;;;;;;1.00;1.00;;;;;17.38;73.57;99524.16;5094733;28;8830;-59
2023/09/01 11:11:00;;;;;;;;;0.00;0.00;;;;;17.44;73.62;99524.28;5095114;28;8826;-58
2023/09/01 11:13:29;;;;;;;;;1.40;1.40;;;;;17.49;73.44;99519.22;5093324;28;8857;-58
2023/09/01 11:15:57;;;;;;;;;0.00;0.00;;;;;17.56;73.51;99517.50;5094010;28;8865;-58
2023/09/01 11:18:24;;;;;;;;;0.80;0.80;;;;;17.62;73.16;99519.47;5093152;28;8830;-56
2023/09/01 11:20:53;;;;;;;;;0.00;0.00;;;;;17.68;73.26;99507.97;5093734;28;8833;-60
2023/09/01 11:23:20;;;;;;;;;3.00;1.40;;;;;17.77;73.04;99506.09;5093053;28;8825;-57
2023/09/01 11:25:50;;;;;;;;;1.00;1.00;;;;;17.85;72.67;99509.53;5093263;28;8841;-57
2023/09/01 11:28:18;;;;;;;;;1.00;1.00;;;;;17.96;72.32;99511.00;5092992;28;9538;-57
2023/09/01 11:30:46;;;;;;;;;1.00;0.20;;;;;18.08;72.34;99510.38;5093162;28;9541;-57
2023/09/01 11:33:14;;;;;;;;;1.00;1.00;;;;;18.21;72.31;99516.03;5092694;28;8825;-58
2023/09/01 11:35:42;;;;;;;;;1.40;1.40;;;;;18.36;71.96;99514.25;5092920;28;8850;-58
2023/09/01 11:38:10;;;;;;;;;0.80;0.80;;;;;18.52;71.24;99515.97;5093797;28;9511;-59
2023/09/01 11:40:38;;;;;;;;;1.00;0.80;;;;;18.62;71.89;99514.69;5093661;28;9742;-57
2023/09/01 11:43:06;;;;;;;;;1.00;1.00;;;;;18.76;71.39;99511.16;5092843;28;8830;-57